Hovedside
METAR-TAF:

METAR-TAF

Lufthavner :

Karleby, Finland

Kronoby lufthavn

breddegrad: 63-43N, lengdegrad: 023-09E, høyde over havet: 25 m

Gjeldene værobservasjon

Denne rapporten ble laget for 31 minutter siden, klokken 20:20 UTC
Vind 11 kt fra Vest-nordvest, skiftende mellom Vest og Nord-nordvest
Temperatur 3°C
Luftfuktighet 60%
Trykk 1006 hPa
Sikt 10 km eller mer
ingen skyer under 1500 m og ingen bygeskyer

METAR: EFKK 262020Z AUTO 29011KT 270V340 CAVOK 03/M04 Q1006

Tid: 23:51 (20:51 UTC)

Varsel

Denne rapporten ble laget for 14 minutter siden, klokken 20:37 UTC
Varsel gyldig fra 26. klokken 21 UTC til 26. klokken 23 UTC
Vind 12 kt fra Vest-nordvest
Sikt 10 km eller mer
ingen skyer under 1500 m og ingen bygeskyer

TAF: EFKK 262037Z 2621/2623 29012KT CAVOK

Værobservasjoner og værvarsel for over 4000 flyplasser (METAR- og TAF-rapporter).

Tilgjengelige stasjoner er representert av de røde og gule prikkene på kartet.

Hold musepekeren over prikken for å se navnet på stasjonen.

Klikk så for å se værobservasjoner og -varsler.

For å forandre kartet kan du klikke på den grønne knappen med svart kryss for å zoome inn, på den grønne knappen med strek for å zoome ut, eller på de grønne pilene for å se tilstøtende kart.


METAR-TAF: